NKS002 KFLL-KATL
Flight info
| Callsign | NKS002 |
|---|---|
| Flight time | 1h 27m |
| Altitude | 38000 |
| Route | FRSBE2 STYMY Q77 MJAMS/N0437F370 Q77 SHRKS/N0443F380 LAIRI LARZZ JJEDI4 |
| Aircraft | A319/M-SDE3FGHIRWY/LB1 |
Departure
| Time | 2026-05-03 23:41 |
|---|---|
| Airport | Fort Lauderdale Hollywood International Airport (KFLL) |
Arrival
| Time | 2026-05-04 01:09 |
|---|---|
| Airport | Hartsfield Jackson Atlanta International Airport (KATL) |
| Time | Latitude | Longitude | Altitude | Speed | Heading |
|---|---|---|---|---|---|
| 2026-05-03 22:21 | 26.07146 | -80.14730 | 11 ft | 0 kts | 162° |
| 2026-05-03 22:40 | 26.07156 | -80.14734 | 11 ft | 2 kts | 162° |
| 2026-05-03 22:40 | 26.07170 | -80.14738 | 11 ft | 2 kts | 163° |
| 2026-05-03 22:41 | 26.07184 | -80.14744 | 11 ft | 2 kts | 162° |
| 2026-05-03 22:41 | 26.07200 | -80.14745 | 11 ft | 2 kts | 200° |
| 2026-05-03 22:41 | 26.07213 | -80.14736 | 11 ft | 2 kts | 231° |
| 2026-05-03 22:41 | 26.07220 | -80.14720 | 11 ft | 2 kts | 263° |
| 2026-05-03 22:42 | 26.07220 | -80.14711 | 11 ft | 1 kts | 282° |
| 2026-05-03 22:42 | 26.07218 | -80.14704 | 11 ft | 0 kts | 282° |
| 2026-05-03 23:03 | 26.07218 | -80.14705 | 11 ft | 0 kts | 282° |
| 2026-05-03 23:03 | 26.07219 | -80.14716 | 11 ft | 3 kts | 271° |
| 2026-05-03 23:03 | 26.07173 | -80.14796 | 11 ft | 14 kts | 230° |
| 2026-05-03 23:03 | 26.07135 | -80.14897 | 11 ft | 15 kts | 283° |
| 2026-05-03 23:04 | 26.07162 | -80.14999 | 11 ft | 10 kts | 235° |
| 2026-05-03 23:04 | 26.07120 | -80.15048 | 11 ft | 10 kts | 225° |
| 2026-05-03 23:04 | 26.07052 | -80.15119 | 11 ft | 14 kts | 208° |
| 2026-05-03 23:04 | 26.06947 | -80.15129 | 11 ft | 15 kts | 180° |
| 2026-05-03 23:05 | 26.06833 | -80.15131 | 11 ft | 16 kts | 181° |
| 2026-05-03 23:05 | 26.06717 | -80.15141 | 11 ft | 16 kts | 210° |
| 2026-05-03 23:05 | 26.06695 | -80.15264 | 11 ft | 17 kts | 270° |
| 2026-05-03 23:05 | 26.06697 | -80.15398 | 11 ft | 17 kts | 271° |
| 2026-05-03 23:06 | 26.06698 | -80.15533 | 11 ft | 11 kts | 269° |
| 2026-05-03 23:06 | 26.06698 | -80.15546 | 11 ft | 0 kts | 270° |
| 2026-05-03 23:07 | 26.06698 | -80.15580 | 11 ft | 6 kts | 270° |
| 2026-05-03 23:07 | 26.06698 | -80.15595 | 11 ft | 0 kts | 270° |
| 2026-05-03 23:08 | 26.06698 | -80.15598 | 11 ft | 1 kts | 270° |
| 2026-05-03 23:08 | 26.06698 | -80.15614 | 11 ft | 0 kts | 269° |
| 2026-05-03 23:11 | 26.06698 | -80.15615 | 11 ft | 0 kts | 269° |
| 2026-05-03 23:11 | 26.06698 | -80.15622 | 11 ft | 1 kts | 269° |
| 2026-05-03 23:11 | 26.06698 | -80.15625 | 11 ft | 0 kts | 269° |
| 2026-05-03 23:12 | 26.06698 | -80.15628 | 11 ft | 4 kts | 269° |
| 2026-05-03 23:13 | 26.06698 | -80.15682 | 11 ft | 0 kts | 271° |
| 2026-05-03 23:13 | 26.06698 | -80.15683 | 11 ft | 0 kts | 271° |
| 2026-05-03 23:13 | 26.06699 | -80.15723 | 11 ft | 0 kts | 271° |
| 2026-05-03 23:13 | 26.06699 | -80.15737 | 11 ft | 6 kts | 270° |
| 2026-05-03 23:14 | 26.06699 | -80.15770 | 11 ft | 0 kts | 270° |
| 2026-05-03 23:18 | 26.06699 | -80.15771 | 11 ft | 0 kts | 270° |
| 2026-05-03 23:18 | 26.06699 | -80.15774 | 11 ft | 0 kts | 270° |
| 2026-05-03 23:35 | 26.06695 | -80.15794 | 11 ft | 7 kts | 248° |
| 2026-05-03 23:35 | 26.06682 | -80.15812 | 11 ft | 0 kts | 214° |
| 2026-05-03 23:39 | 26.06682 | -80.15813 | 11 ft | 0 kts | 214° |
| 2026-05-03 23:39 | 26.06625 | -80.15820 | 11 ft | 13 kts | 162° |
| 2026-05-03 23:39 | 26.06588 | -80.15726 | 11 ft | 14 kts | 90° |
| 2026-05-03 23:40 | 26.06588 | -80.15681 | 11 ft | 5 kts | 90° |
| 2026-05-03 23:40 | 26.06589 | -80.15548 | 11 ft | 49 kts | 88° |
| 2026-05-03 23:40 | 26.06582 | -80.14850 | 12 ft | 130 kts | 89° |
| 2026-05-03 23:40 | 26.06571 | -80.13621 | 225 ft | 178 kts | 89° |
| 2026-05-03 23:41 | 26.06554 | -80.12125 | 555 ft | 214 kts | 88° |
| 2026-05-03 23:41 | 26.06826 | -80.10384 | 830 ft | 240 kts | 63° |
| 2026-05-03 23:41 | 26.07711 | -80.08794 | 1481 ft | 248 kts | 53° |
| 2026-05-03 23:41 | 26.08887 | -80.07376 | 2141 ft | 257 kts | 35° |
| 2026-05-03 23:42 | 26.10481 | -80.06471 | 3138 ft | 262 kts | 19° |
| 2026-05-03 23:42 | 26.12218 | -80.05797 | 3778 ft | 270 kts | 17° |
| 2026-05-03 23:42 | 26.14039 | -80.05124 | 3973 ft | 270 kts | 14° |
| 2026-05-03 23:42 | 26.15892 | -80.04903 | 3978 ft | 266 kts | 353° |
| 2026-05-03 23:43 | 26.17678 | -80.05382 | 3996 ft | 264 kts | 339° |
| 2026-05-03 23:43 | 26.19219 | -80.05990 | 3995 ft | 263 kts | 338° |
| 2026-05-03 23:43 | 26.20967 | -80.06716 | 3994 ft | 262 kts | 335° |
| 2026-05-03 23:43 | 26.22433 | -80.07886 | 3987 ft | 260 kts | 309° |
| 2026-05-03 23:44 | 26.23308 | -80.09655 | 4100 ft | 264 kts | 291° |
| 2026-05-03 23:44 | 26.23975 | -80.11593 | 4896 ft | 269 kts | 290° |
| 2026-05-03 23:44 | 26.24627 | -80.13479 | 6085 ft | 265 kts | 289° |
| 2026-05-03 23:44 | 26.25348 | -80.15370 | 7116 ft | 267 kts | 293° |
| 2026-05-03 23:45 | 26.26212 | -80.17175 | 8039 ft | 272 kts | 298° |
| 2026-05-03 23:45 | 26.27209 | -80.18966 | 8969 ft | 275 kts | 299° |
| 2026-05-03 23:45 | 26.28240 | -80.20781 | 9879 ft | 277 kts | 299° |
| 2026-05-03 23:45 | 26.29277 | -80.22601 | 10631 ft | 284 kts | 299° |
| 2026-05-03 23:46 | 26.30357 | -80.24507 | 11079 ft | 301 kts | 299° |
| 2026-05-03 23:46 | 26.31505 | -80.26532 | 11672 ft | 312 kts | 299° |
| 2026-05-03 23:46 | 26.32669 | -80.28577 | 12355 ft | 317 kts | 298° |
| 2026-05-03 23:46 | 26.33856 | -80.30670 | 12805 ft | 319 kts | 298° |
| 2026-05-03 23:47 | 26.35052 | -80.32778 | 13001 ft | 320 kts | 298° |
| 2026-05-03 23:47 | 26.36241 | -80.34877 | 13003 ft | 319 kts | 298° |
| 2026-05-03 23:47 | 26.37428 | -80.36972 | 13019 ft | 319 kts | 298° |
| 2026-05-03 23:47 | 26.38603 | -80.39050 | 13017 ft | 319 kts | 298° |
| 2026-05-03 23:48 | 26.39802 | -80.41167 | 13039 ft | 321 kts | 298° |
| 2026-05-03 23:48 | 26.41004 | -80.43299 | 13464 ft | 329 kts | 298° |
| 2026-05-03 23:48 | 26.42227 | -80.45462 | 14346 ft | 326 kts | 298° |
| 2026-05-03 23:48 | 26.43434 | -80.47594 | 15185 ft | 325 kts | 298° |
| 2026-05-03 23:49 | 26.44637 | -80.49726 | 15920 ft | 327 kts | 297° |
| 2026-05-03 23:49 | 26.45866 | -80.51904 | 16609 ft | 330 kts | 298° |
| 2026-05-03 23:49 | 26.47116 | -80.54073 | 17293 ft | 333 kts | 302° |
| 2026-05-03 23:49 | 26.48759 | -80.55933 | 17939 ft | 345 kts | 317° |
| 2026-05-03 23:50 | 26.50900 | -80.57243 | 18568 ft | 359 kts | 333° |
| 2026-05-03 23:50 | 26.53327 | -80.58085 | 19173 ft | 366 kts | 337° |
| 2026-05-03 23:50 | 26.55804 | -80.58859 | 19729 ft | 370 kts | 338° |
| 2026-05-03 23:50 | 26.58305 | -80.59632 | 20302 ft | 374 kts | 337° |
| 2026-05-03 23:51 | 26.60821 | -80.60416 | 20862 ft | 377 kts | 337° |
| 2026-05-03 23:51 | 26.63401 | -80.61227 | 21397 ft | 381 kts | 337° |
| 2026-05-03 23:51 | 26.65941 | -80.62029 | 21941 ft | 383 kts | 336° |
| 2026-05-03 23:51 | 26.68543 | -80.62855 | 22463 ft | 386 kts | 336° |
| 2026-05-03 23:52 | 26.71145 | -80.63683 | 22945 ft | 390 kts | 336° |
| 2026-05-03 23:52 | 26.73812 | -80.64533 | 23438 ft | 394 kts | 336° |
| 2026-05-03 23:52 | 26.76473 | -80.65381 | 23932 ft | 398 kts | 335° |
| 2026-05-03 23:52 | 26.79147 | -80.66240 | 24484 ft | 400 kts | 335° |
| 2026-05-03 23:53 | 26.81848 | -80.67110 | 25065 ft | 401 kts | 335° |
| 2026-05-03 23:53 | 26.84560 | -80.67994 | 25586 ft | 403 kts | 335° |
| 2026-05-03 23:53 | 26.87268 | -80.68863 | 25992 ft | 408 kts | 335° |
| 2026-05-03 23:53 | 26.90070 | -80.69756 | 26418 ft | 412 kts | 334° |
| 2026-05-03 23:54 | 26.92786 | -80.70710 | 26903 ft | 412 kts | 332° |
| 2026-05-03 23:54 | 26.95524 | -80.71736 | 27398 ft | 413 kts | 332° |
| 2026-05-03 23:54 | 26.98257 | -80.72773 | 27826 ft | 416 kts | 332° |
| 2026-05-03 23:54 | 27.01029 | -80.73827 | 28278 ft | 418 kts | 332° |
| 2026-05-03 23:55 | 27.03810 | -80.74881 | 28719 ft | 421 kts | 331° |
| 2026-05-03 23:55 | 27.06584 | -80.75935 | 29126 ft | 424 kts | 331° |
| 2026-05-03 23:55 | 27.09393 | -80.77000 | 29510 ft | 427 kts | 331° |
| 2026-05-03 23:55 | 27.12238 | -80.78077 | 29937 ft | 429 kts | 331° |
| 2026-05-03 23:56 | 27.15101 | -80.79154 | 30284 ft | 432 kts | 331° |
| 2026-05-03 23:56 | 27.17965 | -80.80233 | 30670 ft | 434 kts | 330° |
| 2026-05-03 23:56 | 27.20845 | -80.81323 | 30986 ft | 437 kts | 330° |
| 2026-05-03 23:56 | 27.23737 | -80.82419 | 31308 ft | 440 kts | 330° |
| 2026-05-03 23:57 | 27.26629 | -80.83517 | 31624 ft | 442 kts | 330° |
| 2026-05-03 23:57 | 27.29404 | -80.84570 | 31987 ft | 443 kts | 329° |
| 2026-05-03 23:57 | 27.32123 | -80.85602 | 32425 ft | 441 kts | 329° |
| 2026-05-03 23:57 | 27.35016 | -80.86746 | 32913 ft | 437 kts | 327° |
| 2026-05-03 23:58 | 27.37854 | -80.87913 | 33368 ft | 435 kts | 327° |
| 2026-05-03 23:58 | 27.40695 | -80.89094 | 33800 ft | 435 kts | 327° |
| 2026-05-03 23:58 | 27.43536 | -80.90274 | 34214 ft | 435 kts | 327° |
| 2026-05-03 23:58 | 27.46391 | -80.91456 | 34679 ft | 434 kts | 327° |
| 2026-05-03 23:59 | 27.49193 | -80.92612 | 35151 ft | 432 kts | 327° |
| 2026-05-03 23:59 | 27.52025 | -80.93781 | 35594 ft | 430 kts | 326° |
| 2026-05-03 23:59 | 27.54824 | -80.94936 | 35984 ft | 429 kts | 326° |
| 2026-05-03 23:59 | 27.57634 | -80.96097 | 36306 ft | 430 kts | 326° |
| 2026-05-04 00:00 | 27.60427 | -80.97253 | 36598 ft | 430 kts | 326° |
| 2026-05-04 00:00 | 27.63289 | -80.98437 | 36913 ft | 431 kts | 326° |
| 2026-05-04 00:00 | 27.66109 | -80.99603 | 37146 ft | 432 kts | 326° |
| 2026-05-04 00:00 | 27.68940 | -81.00776 | 37332 ft | 435 kts | 326° |
| 2026-05-04 00:01 | 27.71810 | -81.01965 | 37567 ft | 436 kts | 326° |
| 2026-05-04 00:01 | 27.74657 | -81.03142 | 37848 ft | 436 kts | 326° |
| 2026-05-04 00:01 | 27.77519 | -81.04324 | 38057 ft | 436 kts | 326° |
| 2026-05-04 00:01 | 27.80392 | -81.05515 | 38083 ft | 437 kts | 326° |
| 2026-05-04 00:02 | 27.86116 | -81.07887 | 38093 ft | 437 kts | 326° |
| 2026-05-04 00:02 | 27.91887 | -81.10282 | 38093 ft | 437 kts | 326° |
| 2026-05-04 00:03 | 27.97642 | -81.12671 | 38096 ft | 437 kts | 326° |
| 2026-05-04 00:03 | 28.03346 | -81.15079 | 38090 ft | 435 kts | 323° |
| 2026-05-04 00:04 | 28.08882 | -81.17843 | 38104 ft | 429 kts | 321° |
| 2026-05-04 00:04 | 28.14384 | -81.20678 | 38097 ft | 430 kts | 321° |
| 2026-05-04 00:05 | 28.19869 | -81.23495 | 38104 ft | 430 kts | 321° |
| 2026-05-04 00:05 | 28.25374 | -81.26334 | 38104 ft | 430 kts | 321° |
| 2026-05-04 00:06 | 28.30825 | -81.29157 | 38111 ft | 431 kts | 321° |
| 2026-05-04 00:06 | 28.36154 | -81.31902 | 38106 ft | 432 kts | 321° |
| 2026-05-04 00:07 | 28.41303 | -81.34524 | 38107 ft | 432 kts | 321° |
| 2026-05-04 00:07 | 28.46895 | -81.37377 | 38107 ft | 431 kts | 321° |
| 2026-05-04 00:08 | 28.52368 | -81.40180 | 38108 ft | 432 kts | 320° |
| 2026-05-04 00:08 | 28.57888 | -81.43007 | 38103 ft | 432 kts | 320° |
| 2026-05-04 00:09 | 28.63391 | -81.45834 | 38104 ft | 432 kts | 320° |
| 2026-05-04 00:09 | 28.68916 | -81.48672 | 38103 ft | 434 kts | 320° |
| 2026-05-04 00:10 | 28.74420 | -81.51506 | 38107 ft | 432 kts | 320° |
| 2026-05-04 00:10 | 28.79936 | -81.54346 | 38103 ft | 434 kts | 320° |
| 2026-05-04 00:11 | 28.85470 | -81.57174 | 38104 ft | 436 kts | 322° |
| 2026-05-04 00:11 | 28.91237 | -81.59526 | 38104 ft | 449 kts | 328° |
| 2026-05-04 00:12 | 28.97441 | -81.61169 | 38095 ft | 463 kts | 335° |
| 2026-05-04 00:12 | 29.03937 | -81.62030 | 38105 ft | 474 kts | 340° |
| 2026-05-04 00:13 | 29.10593 | -81.62609 | 38103 ft | 474 kts | 341° |
| 2026-05-04 00:13 | 29.17215 | -81.63176 | 38105 ft | 470 kts | 340° |
| 2026-05-04 00:14 | 29.23738 | -81.63764 | 38107 ft | 472 kts | 341° |
| 2026-05-04 00:14 | 29.30266 | -81.64359 | 38113 ft | 470 kts | 340° |
| 2026-05-04 00:15 | 29.36840 | -81.64967 | 38111 ft | 471 kts | 341° |
| 2026-05-04 00:15 | 29.43407 | -81.65589 | 38109 ft | 469 kts | 340° |
| 2026-05-04 00:16 | 29.49868 | -81.66206 | 38123 ft | 471 kts | 340° |
| 2026-05-04 00:16 | 29.56430 | -81.66816 | 38121 ft | 473 kts | 340° |
| 2026-05-04 00:17 | 29.62961 | -81.67414 | 38123 ft | 472 kts | 341° |
| 2026-05-04 00:17 | 29.69545 | -81.68015 | 38123 ft | 471 kts | 341° |
| 2026-05-04 00:18 | 29.76132 | -81.68637 | 38124 ft | 472 kts | 341° |
| 2026-05-04 00:18 | 29.82638 | -81.69243 | 38131 ft | 470 kts | 341° |
| 2026-05-04 00:19 | 29.89233 | -81.69862 | 38128 ft | 472 kts | 341° |
| 2026-05-04 00:19 | 29.95446 | -81.70438 | 38140 ft | 472 kts | 341° |
| 2026-05-04 00:20 | 30.02008 | -81.71046 | 38140 ft | 471 kts | 341° |
| 2026-05-04 00:20 | 30.08562 | -81.71659 | 38144 ft | 472 kts | 341° |
| 2026-05-04 00:21 | 30.15050 | -81.72255 | 38146 ft | 471 kts | 342° |
| 2026-05-04 00:21 | 30.21626 | -81.72860 | 38149 ft | 470 kts | 341° |
| 2026-05-04 00:22 | 30.28133 | -81.73466 | 38136 ft | 469 kts | 342° |
| 2026-05-04 00:22 | 30.34709 | -81.74084 | 38150 ft | 470 kts | 342° |
| 2026-05-04 00:23 | 30.41220 | -81.74693 | 38146 ft | 468 kts | 342° |
| 2026-05-04 00:23 | 30.47777 | -81.75307 | 38148 ft | 470 kts | 342° |
| 2026-05-04 00:24 | 30.54321 | -81.75944 | 38141 ft | 466 kts | 340° |
| 2026-05-04 00:24 | 30.60628 | -81.77214 | 38151 ft | 453 kts | 332° |
| 2026-05-04 00:25 | 30.66576 | -81.79371 | 38140 ft | 442 kts | 325° |
| 2026-05-04 00:25 | 30.72117 | -81.82284 | 38139 ft | 433 kts | 320° |
| 2026-05-04 00:26 | 30.77491 | -81.85418 | 38100 ft | 433 kts | 320° |
| 2026-05-04 00:26 | 30.82898 | -81.88571 | 38141 ft | 433 kts | 320° |
| 2026-05-04 00:27 | 30.88291 | -81.91708 | 38137 ft | 433 kts | 320° |
| 2026-05-04 00:27 | 30.93685 | -81.94846 | 38130 ft | 433 kts | 320° |
| 2026-05-04 00:28 | 30.99119 | -81.98005 | 38121 ft | 436 kts | 320° |
| 2026-05-04 00:28 | 31.04521 | -82.01152 | 38133 ft | 434 kts | 321° |
| 2026-05-04 00:29 | 31.09907 | -82.04291 | 38128 ft | 434 kts | 321° |
| 2026-05-04 00:29 | 31.15317 | -82.07430 | 38139 ft | 433 kts | 321° |
| 2026-05-04 00:30 | 31.20742 | -82.10586 | 38131 ft | 434 kts | 321° |
| 2026-05-04 00:30 | 31.26152 | -82.13747 | 38131 ft | 434 kts | 321° |
| 2026-05-04 00:31 | 31.31542 | -82.16903 | 38132 ft | 433 kts | 321° |
| 2026-05-04 00:31 | 31.36953 | -82.20079 | 38134 ft | 433 kts | 321° |
| 2026-05-04 00:32 | 31.42315 | -82.23230 | 38136 ft | 432 kts | 322° |
| 2026-05-04 00:32 | 31.47681 | -82.26386 | 38131 ft | 431 kts | 321° |
| 2026-05-04 00:33 | 31.55708 | -82.31119 | 38134 ft | 430 kts | 322° |
| 2026-05-04 00:34 | 31.61034 | -82.34261 | 38130 ft | 430 kts | 322° |
| 2026-05-04 00:34 | 31.66395 | -82.37431 | 38136 ft | 430 kts | 322° |
| 2026-05-04 00:35 | 31.71716 | -82.40581 | 38138 ft | 429 kts | 322° |
| 2026-05-04 00:35 | 31.77073 | -82.43758 | 38134 ft | 431 kts | 322° |
| 2026-05-04 00:36 | 31.82404 | -82.46919 | 38133 ft | 430 kts | 322° |
| 2026-05-04 00:36 | 31.87743 | -82.50096 | 38141 ft | 430 kts | 322° |
| 2026-05-04 00:37 | 31.93021 | -82.53339 | 38144 ft | 425 kts | 320° |
| 2026-05-04 00:37 | 31.97980 | -82.57143 | 38136 ft | 418 kts | 314° |
| 2026-05-04 00:38 | 32.02461 | -82.61435 | 38133 ft | 413 kts | 310° |
| 2026-05-04 00:38 | 32.06815 | -82.65881 | 38142 ft | 413 kts | 309° |
| 2026-05-04 00:39 | 32.11171 | -82.70356 | 38136 ft | 413 kts | 309° |
| 2026-05-04 00:39 | 32.15548 | -82.74812 | 38132 ft | 413 kts | 309° |
| 2026-05-04 00:40 | 32.19869 | -82.79227 | 38131 ft | 422 kts | 309° |
| 2026-05-04 00:40 | 32.24392 | -82.83867 | 38134 ft | 430 kts | 310° |
| 2026-05-04 00:41 | 32.28927 | -82.88517 | 38143 ft | 434 kts | 310° |
| 2026-05-04 00:41 | 32.33482 | -82.93201 | 38127 ft | 438 kts | 310° |
| 2026-05-04 00:42 | 32.38134 | -82.97985 | 38129 ft | 437 kts | 310° |
| 2026-05-04 00:42 | 32.42732 | -83.02711 | 38131 ft | 437 kts | 311° |
| 2026-05-04 00:43 | 32.47353 | -83.07467 | 38128 ft | 438 kts | 310° |
| 2026-05-04 00:43 | 32.51909 | -83.12168 | 38124 ft | 438 kts | 311° |
| 2026-05-04 00:44 | 32.56530 | -83.16942 | 38117 ft | 439 kts | 311° |
| 2026-05-04 00:44 | 32.61137 | -83.21708 | 38115 ft | 440 kts | 311° |
| 2026-05-04 00:45 | 32.65742 | -83.26484 | 38125 ft | 440 kts | 311° |
| 2026-05-04 00:45 | 32.70352 | -83.31278 | 38120 ft | 440 kts | 311° |
| 2026-05-04 00:46 | 32.74929 | -83.36043 | 38111 ft | 440 kts | 311° |
| 2026-05-04 00:46 | 32.79567 | -83.40878 | 38117 ft | 442 kts | 311° |
| 2026-05-04 00:47 | 32.84167 | -83.45681 | 38117 ft | 441 kts | 311° |
| 2026-05-04 00:47 | 32.88776 | -83.50495 | 37777 ft | 431 kts | 312° |
| 2026-05-04 00:47 | 32.91020 | -83.52845 | 37009 ft | 433 kts | 312° |
| 2026-05-04 00:48 | 32.93293 | -83.55231 | 36090 ft | 435 kts | 312° |
| 2026-05-04 00:48 | 32.95558 | -83.57610 | 35424 ft | 435 kts | 312° |
| 2026-05-04 00:48 | 32.97818 | -83.59975 | 34738 ft | 436 kts | 313° |
| 2026-05-04 00:48 | 33.00110 | -83.62376 | 34019 ft | 438 kts | 313° |
| 2026-05-04 00:49 | 33.02375 | -83.64756 | 33235 ft | 439 kts | 314° |
| 2026-05-04 00:49 | 33.04682 | -83.67190 | 32398 ft | 441 kts | 314° |
| 2026-05-04 00:49 | 33.07009 | -83.69645 | 31513 ft | 444 kts | 314° |
| 2026-05-04 00:49 | 33.09317 | -83.72077 | 30596 ft | 447 kts | 315° |
| 2026-05-04 00:50 | 33.11663 | -83.74541 | 29578 ft | 450 kts | 315° |
| 2026-05-04 00:50 | 33.14028 | -83.77011 | 28500 ft | 452 kts | 316° |
| 2026-05-04 00:50 | 33.16406 | -83.79505 | 27446 ft | 454 kts | 316° |
| 2026-05-04 00:50 | 33.18769 | -83.81998 | 26858 ft | 444 kts | 315° |
| 2026-05-04 00:51 | 33.20985 | -83.84525 | 26581 ft | 428 kts | 313° |
| 2026-05-04 00:51 | 33.23063 | -83.87005 | 26323 ft | 415 kts | 313° |
| 2026-05-04 00:51 | 33.25066 | -83.89418 | 26074 ft | 402 kts | 313° |
| 2026-05-04 00:51 | 33.27021 | -83.91765 | 25830 ft | 390 kts | 313° |
| 2026-05-04 00:52 | 33.28904 | -83.94018 | 25596 ft | 378 kts | 313° |
| 2026-05-04 00:52 | 33.30749 | -83.96223 | 25230 ft | 371 kts | 313° |
| 2026-05-04 00:52 | 33.32594 | -83.98436 | 24324 ft | 379 kts | 313° |
| 2026-05-04 00:52 | 33.34480 | -84.00699 | 23281 ft | 389 kts | 313° |
| 2026-05-04 00:53 | 33.36546 | -84.02776 | 22168 ft | 402 kts | 327° |
| 2026-05-04 00:53 | 33.39231 | -84.03881 | 20994 ft | 419 kts | 350° |
| 2026-05-04 00:53 | 33.42175 | -84.03807 | 19892 ft | 431 kts | 3° |
| 2026-05-04 00:53 | 33.45190 | -84.03447 | 18770 ft | 438 kts | 2° |
| 2026-05-04 00:54 | 33.48223 | -84.03265 | 17531 ft | 446 kts | 358° |
| 2026-05-04 00:54 | 33.51362 | -84.03282 | 16499 ft | 445 kts | 356° |
| 2026-05-04 00:54 | 33.54429 | -84.03343 | 15954 ft | 434 kts | 357° |
| 2026-05-04 00:54 | 33.57417 | -84.03395 | 15424 ft | 424 kts | 358° |
| 2026-05-04 00:55 | 33.60318 | -84.03371 | 14694 ft | 420 kts | 359° |
| 2026-05-04 00:55 | 33.63267 | -84.03312 | 13911 ft | 417 kts | 359° |
| 2026-05-04 00:55 | 33.66121 | -84.03258 | 13197 ft | 412 kts | 359° |
| 2026-05-04 00:55 | 33.68947 | -84.03206 | 12492 ft | 407 kts | 359° |
| 2026-05-04 00:56 | 33.71746 | -84.03158 | 11647 ft | 399 kts | 359° |
| 2026-05-04 00:56 | 33.74464 | -84.03119 | 10397 ft | 385 kts | 359° |
| 2026-05-04 00:56 | 33.77060 | -84.03091 | 9227 ft | 370 kts | 359° |
| 2026-05-04 00:56 | 33.79577 | -84.03069 | 8054 ft | 357 kts | 359° |
| 2026-05-04 00:57 | 33.82042 | -84.02978 | 6850 ft | 347 kts | 7° |
| 2026-05-04 00:57 | 33.84278 | -84.02072 | 5731 ft | 340 kts | 30° |
| 2026-05-04 00:57 | 33.85988 | -84.00232 | 4882 ft | 328 kts | 53° |
| 2026-05-04 00:57 | 33.86869 | -83.97869 | 4319 ft | 312 kts | 78° |
| 2026-05-04 00:58 | 33.86824 | -83.95325 | 4033 ft | 303 kts | 104° |
| 2026-05-04 00:58 | 33.85867 | -83.93137 | 3990 ft | 287 kts | 132° |
| 2026-05-04 00:58 | 33.84271 | -83.91791 | 3984 ft | 273 kts | 161° |
| 2026-05-04 00:58 | 33.82418 | -83.91471 | 3996 ft | 270 kts | 183° |
| 2026-05-04 00:59 | 33.80515 | -83.91582 | 3995 ft | 271 kts | 184° |
| 2026-05-04 00:59 | 33.78634 | -83.91682 | 3993 ft | 272 kts | 184° |
| 2026-05-04 00:59 | 33.76733 | -83.91784 | 3995 ft | 272 kts | 184° |
| 2026-05-04 00:59 | 33.74877 | -83.91887 | 3995 ft | 272 kts | 185° |
| 2026-05-04 01:00 | 33.73053 | -83.92407 | 3986 ft | 267 kts | 210° |
| 2026-05-04 01:00 | 33.71669 | -83.93834 | 3990 ft | 257 kts | 236° |
| 2026-05-04 01:00 | 33.70745 | -83.95600 | 3992 ft | 243 kts | 243° |
| 2026-05-04 01:00 | 33.69953 | -83.97326 | 3990 ft | 229 kts | 244° |
| 2026-05-04 01:01 | 33.69214 | -83.98966 | 3979 ft | 218 kts | 244° |
| 2026-05-04 01:01 | 33.68507 | -84.00536 | 3976 ft | 207 kts | 244° |
| 2026-05-04 01:01 | 33.67837 | -84.02010 | 3976 ft | 199 kts | 244° |
| 2026-05-04 01:01 | 33.67176 | -84.03468 | 3986 ft | 199 kts | 244° |
| 2026-05-04 01:02 | 33.66512 | -84.04941 | 3988 ft | 199 kts | 244° |
| 2026-05-04 01:02 | 33.65851 | -84.06411 | 3990 ft | 200 kts | 244° |
| 2026-05-04 01:02 | 33.65241 | -84.07918 | 3996 ft | 199 kts | 251° |
| 2026-05-04 01:02 | 33.64771 | -84.09472 | 4002 ft | 205 kts | 253° |
| 2026-05-04 01:03 | 33.64266 | -84.11222 | 4018 ft | 232 kts | 252° |
| 2026-05-04 01:03 | 33.63746 | -84.13084 | 4008 ft | 233 kts | 257° |
| 2026-05-04 01:03 | 33.63475 | -84.15016 | 4013 ft | 238 kts | 267° |
| 2026-05-04 01:03 | 33.63438 | -84.17007 | 3998 ft | 237 kts | 272° |
| 2026-05-04 01:04 | 33.63479 | -84.19001 | 4005 ft | 234 kts | 273° |
| 2026-05-04 01:04 | 33.63504 | -84.20837 | 4077 ft | 212 kts | 272° |
| 2026-05-04 01:04 | 33.63511 | -84.22540 | 3815 ft | 201 kts | 272° |
| 2026-05-04 01:04 | 33.63507 | -84.24166 | 3563 ft | 190 kts | 271° |
| 2026-05-04 01:05 | 33.63500 | -84.25723 | 3352 ft | 177 kts | 271° |
| 2026-05-04 01:05 | 33.63495 | -84.27127 | 3137 ft | 163 kts | 272° |
| 2026-05-04 01:05 | 33.63490 | -84.28417 | 2917 ft | 150 kts | 272° |
| 2026-05-04 01:05 | 33.63486 | -84.29619 | 2721 ft | 142 kts | 271° |
| 2026-05-04 01:06 | 33.63484 | -84.30795 | 2548 ft | 141 kts | 271° |
| 2026-05-04 01:06 | 33.63482 | -84.31976 | 2371 ft | 140 kts | 271° |
| 2026-05-04 01:06 | 33.63480 | -84.33060 | 2207 ft | 140 kts | 271° |
| 2026-05-04 01:06 | 33.63478 | -84.34240 | 2029 ft | 138 kts | 271° |
| 2026-05-04 01:07 | 33.63477 | -84.35374 | 1855 ft | 137 kts | 271° |
| 2026-05-04 01:07 | 33.63474 | -84.36513 | 1682 ft | 135 kts | 272° |
| 2026-05-04 01:07 | 33.63465 | -84.37645 | 1501 ft | 135 kts | 270° |
| 2026-05-04 01:07 | 33.63448 | -84.38783 | 1317 ft | 136 kts | 271° |
| 2026-05-04 01:08 | 33.63453 | -84.39924 | 1165 ft | 137 kts | 272° |
| 2026-05-04 01:08 | 33.63473 | -84.41071 | 998 ft | 137 kts | 271° |
| 2026-05-04 01:08 | 33.63478 | -84.42184 | 989 ft | 121 kts | 269° |
| 2026-05-04 01:08 | 33.63472 | -84.42890 | 1005 ft | 56 kts | 270° |
| 2026-05-04 01:09 | 33.63471 | -84.43231 | 1009 ft | 29 kts | 270° |
| 2026-05-04 01:09 | 33.63549 | -84.43314 | 1010 ft | 14 kts | 360° |
| 2026-05-04 01:09 | 33.63616 | -84.43310 | 1010 ft | 8 kts | 2° |
| 2026-05-04 01:09 | 33.63659 | -84.43333 | 1010 ft | 7 kts | 301° |
| 2026-05-04 01:10 | 33.63696 | -84.43385 | 1011 ft | 8 kts | 340° |
| 2026-05-04 01:10 | 33.63757 | -84.43388 | 1011 ft | 9 kts | 14° |
| 2026-05-04 01:10 | 33.63789 | -84.43340 | 1011 ft | 1 kts | 89° |
| 2026-05-04 01:10 | 33.63790 | -84.43315 | 1010 ft | 4 kts | 90° |
| 2026-05-04 01:11 | 33.63790 | -84.43310 | 1010 ft | 0 kts | 90° |